createdAt,value
2022-10-11T00:00:08.145Z,2.67
2022-10-11T00:02:34.838Z,2.63
2022-10-11T00:05:01.752Z,2.47
2022-10-11T00:07:28.964Z,2.47
2022-10-11T00:09:55.717Z,2.67
2022-10-11T00:12:22.502Z,2.80
2022-10-11T00:14:49.140Z,2.80
2022-10-11T00:17:15.817Z,2.20
2022-10-11T00:19:42.525Z,2.47
2022-10-11T00:22:09.272Z,2.10
2022-10-11T00:24:35.947Z,2.70
2022-10-11T00:27:02.697Z,2.95
2022-10-11T00:29:29.467Z,3.00
2022-10-11T00:31:56.199Z,2.72
2022-10-11T00:34:22.865Z,3.03
2022-10-11T00:36:49.716Z,3.13
2022-10-11T00:39:16.502Z,3.00
2022-10-11T00:41:43.248Z,2.53
2022-10-11T00:44:17.136Z,3.05
2022-10-11T00:46:55.564Z,3.10
2022-10-11T00:49:43.514Z,2.97
2022-10-11T00:52:16.127Z,2.65
2022-10-11T00:54:45.706Z,3.05
2022-10-11T00:57:16.995Z,2.83
2022-10-11T00:59:48.138Z,2.60
2022-10-11T01:02:16.036Z,2.60
2022-10-11T01:04:43.696Z,2.47
2022-10-11T01:07:11.021Z,3.03
2022-10-11T01:09:38.144Z,2.58
2022-10-11T01:12:12.686Z,2.35
2022-10-11T01:14:54.472Z,2.60
2022-10-11T01:17:43.408Z,2.75
2022-10-11T01:20:30.834Z,3.03
2022-10-11T01:23:39.689Z,2.40
2022-10-11T01:26:47.471Z,2.50
2022-10-11T01:29:32.552Z,2.65
2022-10-11T01:32:07.410Z,2.70
2022-10-11T01:34:53.399Z,2.22
2022-10-11T01:37:29.484Z,2.72
2022-10-11T01:40:02.573Z,2.72
2022-10-11T01:42:30.011Z,2.78
2022-10-11T01:44:58.636Z,2.97
2022-10-11T01:47:26.284Z,3.03
2022-10-11T01:49:59.344Z,3.65
2022-10-11T01:52:29.310Z,2.53
2022-10-11T01:55:10.154Z,2.60
2022-10-11T01:57:47.468Z,2.72
2022-10-11T02:00:22.367Z,2.70
2022-10-11T02:03:16.968Z,2.97
2022-10-11T02:05:57.060Z,2.90
2022-10-11T02:08:56.002Z,3.13
2022-10-11T02:11:41.712Z,2.92
2022-10-11T02:14:22.053Z,3.05
2022-10-11T02:17:04.011Z,3.00
2022-10-11T02:19:36.985Z,3.20
2022-10-11T02:22:12.530Z,3.20
2022-10-11T02:24:43.405Z,3.38
2022-10-11T02:27:11.848Z,3.88
2022-10-11T02:29:41.894Z,3.25
2022-10-11T02:32:09.844Z,3.33
2022-10-11T02:34:44.416Z,3.97
2022-10-11T02:37:30.498Z,3.63
2022-10-11T02:40:17.415Z,3.55
2022-10-11T02:42:51.455Z,3.38
2022-10-11T02:45:41.389Z,3.85
2022-10-11T02:48:10.805Z,3.60
2022-10-11T02:50:42.059Z,3.67
2022-10-11T02:53:09.301Z,3.72
2022-10-11T02:55:36.699Z,3.65
2022-10-11T02:58:03.679Z,4.30
2022-10-11T03:00:30.792Z,3.58
2022-10-11T03:02:57.456Z,4.03
2022-10-11T03:05:24.151Z,3.40
2022-10-11T03:07:50.872Z,3.38
2022-10-11T03:10:17.635Z,3.45
2022-10-11T03:12:44.369Z,3.95
2022-10-11T03:15:11.262Z,3.60
2022-10-11T03:17:38.030Z,3.70
2022-10-11T03:20:06.371Z,3.65
2022-10-11T03:22:33.137Z,3.25
2022-10-11T03:25:03.658Z,3.20
2022-10-11T03:27:32.365Z,4.18
2022-10-11T03:29:59.126Z,4.43
2022-10-11T03:32:26.037Z,4.20
2022-10-11T03:34:52.781Z,3.85
2022-10-11T03:37:19.540Z,4.65
2022-10-11T03:39:46.270Z,4.57
2022-10-11T03:42:13.973Z,4.50
2022-10-11T03:44:42.099Z,3.90
2022-10-11T03:47:09.353Z,4.00
2022-10-11T03:49:41.196Z,5.10
2022-10-11T03:52:10.548Z,4.63
2022-10-11T03:54:37.239Z,4.50
2022-10-11T03:57:04.459Z,5.28
2022-10-11T03:59:31.226Z,5.57
2022-10-11T04:01:58.125Z,4.93
2022-10-11T04:04:25.009Z,5.80
2022-10-11T04:06:51.752Z,5.68
2022-10-11T04:09:18.430Z,6.10
2022-10-11T04:11:45.148Z,5.53
2022-10-11T04:14:11.828Z,6.10
2022-10-11T04:16:41.362Z,6.07
2022-10-11T04:19:08.110Z,6.68
2022-10-11T04:21:34.930Z,6.45
2022-10-11T04:24:01.624Z,6.40
2022-10-11T04:26:31.063Z,6.43
2022-10-11T04:28:57.859Z,7.20
2022-10-11T04:31:24.955Z,7.30
2022-10-11T04:33:51.836Z,6.97
2022-10-11T04:36:18.594Z,7.38
2022-10-11T04:38:45.277Z,7.03
2022-10-11T04:41:13.946Z,7.40
2022-10-11T04:43:41.109Z,7.93
2022-10-11T04:46:09.308Z,7.45
2022-10-11T04:48:36.530Z,7.38
2022-10-11T04:51:03.302Z,7.03
2022-10-11T04:53:30.116Z,7.05
2022-10-11T04:56:02.514Z,7.85
2022-10-11T04:58:30.856Z,7.82
2022-10-11T05:00:57.957Z,7.75
2022-10-11T05:03:25.637Z,7.85
2022-10-11T05:05:53.063Z,7.78
2022-10-11T05:08:20.403Z,8.18
2022-10-11T05:11:07.084Z,7.95
2022-10-11T05:13:35.542Z,8.60
2022-10-11T05:16:06.924Z,8.80
2022-10-11T05:18:36.546Z,8.90
2022-10-11T05:21:14.425Z,9.75
2022-10-11T05:23:41.175Z,10.57
2022-10-11T05:26:08.487Z,9.98
2022-10-11T05:28:35.705Z,10.45
2022-10-11T05:31:02.469Z,10.35
2022-10-11T05:33:29.210Z,10.48
2022-10-11T05:35:56.081Z,11.20
2022-10-11T05:38:23.067Z,11.35
2022-10-11T05:40:50.144Z,12.40
2022-10-11T05:43:16.866Z,12.80
2022-10-11T05:45:44.477Z,10.60
2022-10-11T05:48:11.956Z,11.90
2022-10-11T05:50:39.295Z,11.73
2022-10-11T05:53:06.981Z,13.60
2022-10-11T05:55:38.070Z,13.40
2022-10-11T05:58:05.672Z,14.30
2022-10-11T06:00:35.180Z,14.65
2022-10-11T06:03:02.215Z,13.35
2022-10-11T06:05:28.992Z,14.40
2022-10-11T06:07:55.797Z,14.40
2022-10-11T06:10:22.746Z,14.88
2022-10-11T06:12:49.547Z,15.27
2022-10-11T06:15:16.574Z,15.15
2022-10-11T06:17:43.518Z,15.43
2022-10-11T06:20:10.748Z,14.68
2022-10-11T06:22:37.676Z,15.35
2022-10-11T06:25:04.885Z,16.52
2022-10-11T06:27:31.668Z,17.30
2022-10-11T06:29:58.483Z,16.27
2022-10-11T06:32:25.299Z,18.50
2022-10-11T06:34:52.081Z,18.00
2022-10-11T06:37:19.247Z,17.85
2022-10-11T06:39:46.454Z,19.67
2022-10-11T06:42:13.393Z,18.85
2022-10-11T06:44:40.321Z,18.58
2022-10-11T06:47:07.541Z,18.77
2022-10-11T06:49:34.924Z,19.00
2022-10-11T06:52:01.751Z,17.63
2022-10-11T06:54:28.491Z,18.35
2022-10-11T06:56:55.266Z,18.52
2022-10-11T06:59:22.012Z,18.55
2022-10-11T07:01:48.755Z,18.13
2022-10-11T07:04:15.472Z,18.45
2022-10-11T07:06:42.392Z,17.40
2022-10-11T07:09:09.524Z,17.10
2022-10-11T07:11:36.539Z,18.65
2022-10-11T07:14:07.766Z,15.25
2022-10-11T07:16:37.843Z,17.75
2022-10-11T07:19:06.409Z,17.10
2022-10-11T07:21:34.683Z,16.73
2022-10-11T07:24:02.349Z,16.08
2022-10-11T07:26:33.865Z,16.55
2022-10-11T07:29:04.380Z,15.88
2022-10-11T07:31:31.271Z,16.33
2022-10-11T07:33:57.965Z,16.25
2022-10-11T07:36:25.708Z,15.35
2022-10-11T07:38:52.840Z,13.85
2022-10-11T07:41:20.097Z,14.00
2022-10-11T07:43:49.532Z,12.85
2022-10-11T07:46:17.425Z,10.73
2022-10-11T07:48:44.252Z,11.45
2022-10-11T07:51:17.179Z,9.52
2022-10-11T07:53:49.149Z,8.60
2022-10-11T07:56:18.821Z,7.82
2022-10-11T07:58:51.470Z,8.63
2022-10-11T08:01:18.703Z,7.75
2022-10-11T08:03:45.883Z,7.72
2022-10-11T08:06:16.026Z,6.93
2022-10-11T08:08:42.756Z,6.68
2022-10-11T08:11:09.620Z,6.68
2022-10-11T08:13:36.554Z,6.28
2022-10-11T08:16:11.225Z,6.25
2022-10-11T08:18:38.237Z,6.35
2022-10-11T08:21:13.603Z,5.28
2022-10-11T08:23:40.349Z,5.07
2022-10-11T08:26:08.035Z,5.45
2022-10-11T08:28:35.468Z,5.00
2022-10-11T08:31:02.431Z,5.13
2022-10-11T08:33:29.204Z,4.57
2022-10-11T08:35:57.319Z,5.57
2022-10-11T08:38:24.952Z,4.75
2022-10-11T08:40:58.698Z,4.40
2022-10-11T08:43:48.351Z,4.75
2022-10-11T08:46:16.554Z,4.55
2022-10-11T08:48:47.305Z,4.32
2022-10-11T08:51:20.774Z,4.00
2022-10-11T08:54:12.244Z,4.00
2022-10-11T08:56:40.060Z,3.83
2022-10-11T08:59:13.058Z,3.50
2022-10-11T09:01:47.387Z,3.72
2022-10-11T09:04:16.145Z,3.00
2022-10-11T09:07:08.986Z,3.47
2022-10-11T09:10:03.297Z,3.08
2022-10-11T09:12:40.992Z,3.05
2022-10-11T09:15:46.864Z,3.50
2022-10-11T09:18:32.926Z,3.50
2022-10-11T09:21:26.349Z,3.35
2022-10-11T09:24:21.265Z,3.65
2022-10-11T09:26:59.398Z,3.90
2022-10-11T09:29:48.941Z,3.78
2022-10-11T09:32:20.876Z,3.63
2022-10-11T09:34:55.596Z,3.45
2022-10-11T09:37:28.534Z,4.03
2022-10-11T09:40:03.287Z,4.00
2022-10-11T09:42:29.979Z,4.13
2022-10-11T09:44:57.491Z,4.28
2022-10-11T09:47:29.819Z,4.00
2022-10-11T09:50:01.221Z,4.43
2022-10-11T09:52:28.019Z,4.15
2022-10-11T09:54:56.868Z,4.30
2022-10-11T09:57:24.953Z,3.53
2022-10-11T10:00:22.032Z,4.18
2022-10-11T10:02:55.557Z,3.55
2022-10-11T10:05:24.864Z,3.35
2022-10-11T10:08:08.939Z,3.60
2022-10-11T10:10:40.940Z,2.85
2022-10-11T10:13:16.730Z,3.25
2022-10-11T10:15:47.987Z,3.55
2022-10-11T10:18:24.450Z,3.05
2022-10-11T10:20:56.677Z,3.35
2022-10-11T10:23:35.016Z,2.70
2022-10-11T10:26:17.220Z,3.42
2022-10-11T10:29:08.674Z,3.47
2022-10-11T10:32:01.639Z,2.92
2022-10-11T10:34:35.579Z,3.13
2022-10-11T10:37:21.737Z,3.35
2022-10-11T10:40:04.559Z,2.95
2022-10-11T10:42:31.349Z,3.92
2022-10-11T10:44:59.541Z,3.22
2022-10-11T10:48:05.268Z,3.47
2022-10-11T10:50:59.544Z,3.30
2022-10-11T10:53:46.866Z,3.40
2022-10-11T10:56:28.009Z,3.80
2022-10-11T10:59:19.861Z,3.22
2022-10-11T11:02:39.811Z,3.95
2022-10-11T11:05:21.368Z,4.68
2022-10-11T11:08:03.338Z,4.10
2022-10-11T11:10:45.082Z,4.40
2022-10-11T11:13:48.081Z,4.70
2022-10-11T11:16:23.900Z,5.35
2022-10-11T11:19:09.278Z,5.32
2022-10-11T11:22:00.968Z,5.40
2022-10-11T11:24:58.593Z,4.95
2022-10-11T11:27:47.066Z,5.45
2022-10-11T11:30:23.963Z,5.70
2022-10-11T11:33:15.035Z,5.03
2022-10-11T11:35:46.161Z,5.55
2022-10-11T11:38:38.528Z,5.00
2022-10-11T11:41:29.303Z,5.57
2022-10-11T11:44:10.256Z,5.90
2022-10-11T11:47:17.701Z,6.22
2022-10-11T11:49:59.865Z,5.20
2022-10-11T11:52:32.299Z,4.72
2022-10-11T11:55:17.895Z,4.88
2022-10-11T11:58:00.163Z,4.78
2022-10-11T12:01:00.731Z,4.45
2022-10-11T12:03:33.846Z,4.35
2022-10-11T12:06:32.489Z,6.10
2022-10-11T12:09:04.459Z,4.55
2022-10-11T12:11:52.978Z,4.97
2022-10-11T12:14:34.703Z,5.10
2022-10-11T12:17:12.974Z,4.55
2022-10-11T12:19:42.990Z,4.50
2022-10-11T12:23:00.015Z,4.93
2022-10-11T12:25:26.758Z,4.40
2022-10-11T12:27:55.932Z,5.10
2022-10-11T12:30:44.576Z,4.60
2022-10-11T12:33:45.336Z,5.20
2022-10-11T12:36:44.505Z,4.38
2022-10-11T12:39:20.350Z,4.35
2022-10-11T12:42:08.553Z,5.30
2022-10-11T12:44:35.445Z,4.07
2022-10-11T12:47:16.247Z,4.20
2022-10-11T12:50:10.206Z,5.07
2022-10-11T12:52:55.531Z,4.43
2022-10-11T12:56:07.924Z,4.63
2022-10-11T12:58:43.915Z,4.70
2022-10-11T13:01:22.314Z,4.50
2022-10-11T13:04:03.746Z,5.35
2022-10-11T13:06:35.306Z,4.85
2022-10-11T13:09:11.305Z,4.45
2022-10-11T13:11:51.353Z,4.78
2022-10-11T13:14:22.029Z,4.72
2022-10-11T13:17:04.007Z,4.80
2022-10-11T13:19:32.674Z,4.95
2022-10-11T13:22:03.311Z,4.88
2022-10-11T13:24:37.047Z,5.15
2022-10-11T13:27:04.929Z,5.55
2022-10-11T13:29:38.236Z,4.70
2022-10-11T13:32:13.316Z,5.18
2022-10-11T13:34:41.677Z,5.63
2022-10-11T13:37:17.418Z,4.80
2022-10-11T13:39:45.654Z,5.47
2022-10-11T13:42:15.563Z,5.18
2022-10-11T13:44:44.270Z,5.13
2022-10-11T13:47:14.552Z,6.43
2022-10-11T13:50:00.366Z,4.63
2022-10-11T13:52:27.275Z,5.70
2022-10-11T13:55:34.346Z,5.28
2022-10-11T13:58:06.172Z,4.85
2022-10-11T14:00:36.845Z,4.78
2022-10-11T14:03:17.055Z,5.22
2022-10-11T14:05:53.310Z,5.30
2022-10-11T14:08:25.997Z,5.75
2022-10-11T14:10:57.174Z,5.07
2022-10-11T14:13:24.604Z,5.35
2022-10-11T14:16:18.851Z,5.65
2022-10-11T14:18:48.453Z,5.15
2022-10-11T14:21:20.714Z,5.43
2022-10-11T14:23:51.911Z,5.10
2022-10-11T14:26:19.908Z,5.07
2022-10-11T14:28:51.479Z,5.10
2022-10-11T14:31:18.291Z,5.38
2022-10-11T14:33:45.044Z,5.80
2022-10-11T14:36:11.753Z,5.38
2022-10-11T14:38:38.470Z,5.00
2022-10-11T14:41:05.285Z,4.90
2022-10-11T14:43:32.009Z,5.03
2022-10-11T14:45:58.688Z,5.38
2022-10-11T14:48:53.734Z,5.30
2022-10-11T14:51:14.056Z,5.07
2022-10-11T14:53:46.093Z,5.38
2022-10-11T14:56:16.695Z,4.95
2022-10-11T14:58:47.225Z,5.07
2022-10-11T15:01:15.025Z,4.70
2022-10-11T15:03:42.088Z,5.15
2022-10-11T15:06:19.600Z,4.95
2022-10-11T15:08:46.438Z,4.75
2022-10-11T15:11:21.236Z,6.03
2022-10-11T15:13:48.117Z,5.00
2022-10-11T15:16:17.511Z,5.65
2022-10-11T15:18:44.730Z,5.43
2022-10-11T15:21:14.489Z,5.28
2022-10-11T15:23:41.457Z,5.75
2022-10-11T15:26:13.358Z,5.18
2022-10-11T15:28:40.144Z,5.15
2022-10-11T15:31:06.927Z,5.47
2022-10-11T15:33:33.709Z,5.30
2022-10-11T15:36:00.535Z,5.53
2022-10-11T15:38:27.845Z,5.63
2022-10-11T15:40:54.971Z,5.60
2022-10-11T15:43:24.805Z,6.20
2022-10-11T15:45:52.191Z,5.72
2022-10-11T15:48:20.629Z,5.38
2022-10-11T15:50:47.869Z,5.50
2022-10-11T15:53:20.233Z,5.90
2022-10-11T15:55:52.886Z,6.18
2022-10-11T15:58:28.996Z,6.45
2022-10-11T16:00:57.993Z,5.70
2022-10-11T16:03:29.015Z,5.13
2022-10-11T16:05:59.978Z,6.03
2022-10-11T16:08:29.128Z,6.38
2022-10-11T16:10:55.954Z,6.78
2022-10-11T16:13:22.678Z,6.35
2022-10-11T16:15:49.885Z,5.45
2022-10-11T16:18:18.972Z,5.70
2022-10-11T16:20:47.521Z,5.80
2022-10-11T16:23:15.118Z,6.43
2022-10-11T16:25:42.474Z,7.55
2022-10-11T16:28:10.169Z,6.50
2022-10-11T16:30:43.767Z,6.47
2022-10-11T16:33:10.489Z,5.63
2022-10-11T16:35:41.578Z,6.20
2022-10-11T16:38:08.510Z,6.13
2022-10-11T16:40:36.582Z,6.57
2022-10-11T16:43:07.365Z,6.78
2022-10-11T16:45:35.782Z,6.30
2022-10-11T16:48:03.176Z,6.38
2022-10-11T16:50:30.026Z,7.03
2022-10-11T16:52:57.138Z,6.35
2022-10-11T16:55:24.357Z,5.78
2022-10-11T16:57:51.054Z,6.35
2022-10-11T17:00:18.327Z,6.07
2022-10-11T17:02:45.217Z,5.30
2022-10-11T17:05:11.973Z,5.35
2022-10-11T17:07:38.841Z,6.07
2022-10-11T17:10:06.119Z,5.90
2022-10-11T17:12:35.408Z,5.68
2022-10-11T17:15:02.090Z,6.78
2022-10-11T17:17:29.581Z,5.72
2022-10-11T17:19:56.327Z,5.25
2022-10-11T17:22:23.054Z,5.68
2022-10-11T17:24:49.700Z,5.57
2022-10-11T17:27:16.408Z,5.68
2022-10-11T17:29:43.102Z,5.75
2022-10-11T17:32:09.821Z,5.50
2022-10-11T17:34:36.471Z,5.82
2022-10-11T17:37:03.401Z,5.88
2022-10-11T17:39:30.139Z,6.15
2022-10-11T17:41:56.847Z,5.50
2022-10-11T17:44:23.603Z,5.85
2022-10-11T17:46:50.504Z,5.80
2022-10-11T17:49:17.411Z,5.97
2022-10-11T17:51:44.424Z,6.32
2022-10-11T17:54:13.000Z,5.55
2022-10-11T17:56:41.916Z,5.03
2022-10-11T17:59:15.976Z,4.68
2022-10-11T18:01:42.972Z,5.65
2022-10-11T18:04:16.445Z,5.28
2022-10-11T18:06:45.228Z,4.28
2022-10-11T18:09:13.281Z,4.03
2022-10-11T18:11:40.053Z,4.00
2022-10-11T18:14:07.432Z,3.85
2022-10-11T18:16:36.330Z,3.47
2022-10-11T18:19:05.688Z,2.92
2022-10-11T18:21:34.624Z,3.30
2022-10-11T18:24:03.543Z,2.58
2022-10-11T18:26:31.062Z,2.55
2022-10-11T18:28:58.632Z,2.80
2022-10-11T18:31:28.513Z,2.67
2022-10-11T18:33:55.470Z,2.50
2022-10-11T18:36:25.308Z,2.45
2022-10-11T18:38:57.479Z,2.30
2022-10-11T18:41:30.599Z,2.30
2022-10-11T18:44:02.885Z,2.40
2022-10-11T18:46:30.135Z,2.30
2022-10-11T18:48:58.193Z,2.20
2022-10-11T18:51:27.819Z,2.00
2022-10-11T18:53:55.232Z,2.47
2022-10-11T18:56:24.680Z,2.38
2022-10-11T18:58:53.268Z,1.95
2022-10-11T19:01:31.503Z,2.17
2022-10-11T19:04:00.267Z,2.45
2022-10-11T19:06:30.462Z,1.92
2022-10-11T19:09:13.101Z,2.60
2022-10-11T19:11:40.203Z,2.47
2022-10-11T19:14:11.446Z,2.42
2022-10-11T19:16:45.294Z,2.60
2022-10-11T19:19:12.532Z,2.55
2022-10-11T19:21:39.729Z,2.05
2022-10-11T19:24:06.711Z,2.28
2022-10-11T19:26:36.238Z,1.95
2022-10-11T19:29:24.991Z,2.20
2022-10-11T19:31:54.192Z,2.13
2022-10-11T19:34:21.782Z,1.83
2022-10-11T19:36:50.809Z,1.90
2022-10-11T19:39:18.591Z,1.98
2022-10-11T19:41:45.730Z,2.30
2022-10-11T19:44:13.299Z,2.33
2022-10-11T19:46:57.563Z,1.83
2022-10-11T19:49:26.097Z,2.38
2022-10-11T19:51:53.611Z,1.88
2022-10-11T19:54:20.338Z,3.10
2022-10-11T19:56:47.504Z,1.98
2022-10-11T19:59:14.597Z,2.03
2022-10-11T20:01:42.129Z,1.85
2022-10-11T20:04:27.427Z,2.00
2022-10-11T20:06:58.726Z,2.40
2022-10-11T20:09:30.378Z,2.13
2022-10-11T20:11:57.899Z,2.08
2022-10-11T20:14:24.972Z,1.95
2022-10-11T20:16:51.710Z,2.08
2022-10-11T20:19:19.043Z,2.28
2022-10-11T20:21:45.757Z,1.90
2022-10-11T20:24:13.049Z,1.98
2022-10-11T20:26:40.144Z,1.88
2022-10-11T20:29:07.153Z,2.60
2022-10-11T20:31:37.956Z,2.08
2022-10-11T20:34:07.170Z,2.20
2022-10-11T20:36:35.872Z,2.15
2022-10-11T20:39:03.829Z,2.35
2022-10-11T20:41:33.144Z,2.28
2022-10-11T20:44:01.452Z,2.20
2022-10-11T20:46:34.148Z,2.15
2022-10-11T20:49:03.992Z,2.28
2022-10-11T20:51:32.501Z,2.38
2022-10-11T20:53:59.622Z,1.98
2022-10-11T20:56:26.734Z,2.40
2022-10-11T20:58:55.289Z,2.35
2022-10-11T21:01:26.233Z,2.42
2022-10-11T21:03:53.406Z,2.45
2022-10-11T21:06:20.583Z,2.97
2022-10-11T21:08:47.231Z,2.05
2022-10-11T21:11:13.970Z,2.47
2022-10-11T21:13:41.049Z,2.58
2022-10-11T21:16:13.490Z,2.75
2022-10-11T21:18:40.547Z,2.33
2022-10-11T21:21:09.875Z,2.70
2022-10-11T21:23:36.805Z,2.55
2022-10-11T21:26:14.773Z,2.78
2022-10-11T21:28:41.544Z,2.63
2022-10-11T21:31:11.370Z,2.75
2022-10-11T21:33:38.950Z,2.60
2022-10-11T21:36:07.530Z,2.08
2022-10-11T21:38:35.228Z,2.70
2022-10-11T21:41:06.526Z,2.65
2022-10-11T21:43:38.144Z,2.50
2022-10-11T21:46:09.163Z,2.70
2022-10-11T21:48:35.927Z,2.88
2022-10-11T21:51:02.670Z,3.35
2022-10-11T21:53:29.441Z,3.50
2022-10-11T21:56:00.648Z,3.13
2022-10-11T21:58:27.915Z,2.65
2022-10-11T22:00:54.757Z,3.13
2022-10-11T22:03:21.564Z,3.13
2022-10-11T22:05:48.663Z,3.13
2022-10-11T22:08:16.001Z,3.40
2022-10-11T22:10:44.094Z,2.72
2022-10-11T22:13:11.315Z,3.65
2022-10-11T22:15:39.187Z,4.20
2022-10-11T22:18:05.900Z,3.60
2022-10-11T22:20:33.155Z,3.78
2022-10-11T22:22:59.980Z,3.22
2022-10-11T22:25:26.755Z,3.78
2022-10-11T22:27:53.429Z,3.25
2022-10-11T22:30:20.401Z,3.28
2022-10-11T22:32:47.071Z,2.88
2022-10-11T22:35:13.848Z,3.30
2022-10-11T22:37:40.540Z,2.40
2022-10-11T22:40:08.233Z,2.58
2022-10-11T22:42:34.966Z,2.67
2022-10-11T22:45:02.068Z,2.97
2022-10-11T22:47:28.789Z,2.90
2022-10-11T22:49:55.446Z,3.40
2022-10-11T22:52:22.186Z,3.15
2022-10-11T22:54:48.868Z,2.88
2022-10-11T22:57:15.512Z,2.75
2022-10-11T22:59:42.195Z,2.85
2022-10-11T23:02:08.961Z,2.65
2022-10-11T23:04:35.700Z,2.63
2022-10-11T23:07:04.915Z,3.00
2022-10-11T23:09:31.917Z,2.95
2022-10-11T23:11:59.537Z,3.25
2022-10-11T23:14:26.234Z,3.03
2022-10-11T23:16:53.227Z,3.08
2022-10-11T23:19:19.942Z,3.47
2022-10-11T23:21:46.978Z,3.25
2022-10-11T23:24:13.783Z,3.05
2022-10-11T23:26:40.469Z,3.20
2022-10-11T23:29:07.177Z,3.10
2022-10-11T23:31:33.869Z,3.10
2022-10-11T23:34:00.583Z,3.63
2022-10-11T23:36:27.268Z,3.05
2022-10-11T23:38:55.962Z,3.10
2022-10-11T23:41:24.340Z,3.90
2022-10-11T23:43:51.121Z,3.00
2022-10-11T23:46:17.812Z,3.08
2022-10-11T23:48:44.458Z,2.80
2022-10-11T23:51:11.802Z,3.53
2022-10-11T23:53:38.642Z,3.30
2022-10-11T23:56:06.096Z,3.85
2022-10-11T23:58:33.112Z,3.25
